sensor_id;sensor_type;location;lat;lon;timestamp;temperature;humidity
73576;DHT22;61859;49.204;8.140;2022-11-15T00:01:45;9.20;99.90
73576;DHT22;61859;49.204;8.140;2022-11-15T00:04:10;9.10;99.90
73576;DHT22;61859;49.204;8.140;2022-11-15T00:06:36;9.10;99.90
73576;DHT22;61859;49.204;8.140;2022-11-15T00:09:02;9.10;99.90
73576;DHT22;61859;49.204;8.140;2022-11-15T00:11:27;9.10;99.90
73576;DHT22;61859;49.204;8.140;2022-11-15T00:13:57;9.10;99.90
73576;DHT22;61859;49.204;8.140;2022-11-15T00:16:23;9.10;99.90
73576;DHT22;61859;49.204;8.140;2022-11-15T00:18:49;9.10;99.90
73576;DHT22;61859;49.204;8.140;2022-11-15T00:21:16;9.10;99.90
73576;DHT22;61859;49.204;8.140;2022-11-15T00:23:42;9.20;99.90
73576;DHT22;61859;49.204;8.140;2022-11-15T00:26:13;9.20;99.90
73576;DHT22;61859;49.204;8.140;2022-11-15T00:28:40;9.20;99.90
73576;DHT22;61859;49.204;8.140;2022-11-15T00:31:11;9.20;99.90
73576;DHT22;61859;49.204;8.140;2022-11-15T00:33:37;9.20;99.90
73576;DHT22;61859;49.204;8.140;2022-11-15T00:36:05;9.20;99.90
73576;DHT22;61859;49.204;8.140;2022-11-15T00:38:34;9.30;99.90
73576;DHT22;61859;49.204;8.140;2022-11-15T00:41:01;9.30;99.90
73576;DHT22;61859;49.204;8.140;2022-11-15T00:43:27;9.30;99.90
73576;DHT22;61859;49.204;8.140;2022-11-15T00:45:52;9.40;99.90
73576;DHT22;61859;49.204;8.140;2022-11-15T00:48:18;9.40;99.90
73576;DHT22;61859;49.204;8.140;2022-11-15T00:50:44;9.50;99.90
73576;DHT22;61859;49.204;8.140;2022-11-15T00:53:09;9.40;99.90
73576;DHT22;61859;49.204;8.140;2022-11-15T00:55:35;9.50;99.90
73576;DHT22;61859;49.204;8.140;2022-11-15T00:58:01;9.60;99.90
73576;DHT22;61859;49.204;8.140;2022-11-15T01:00:26;9.50;99.90
73576;DHT22;61859;49.204;8.140;2022-11-15T01:02:52;9.60;99.90
73576;DHT22;61859;49.204;8.140;2022-11-15T01:05:18;9.50;99.90
73576;DHT22;61859;49.204;8.140;2022-11-15T01:07:43;9.50;99.90
73576;DHT22;61859;49.204;8.140;2022-11-15T01:10:09;9.50;99.90
73576;DHT22;61859;49.204;8.140;2022-11-15T01:12:35;9.60;99.90
73576;DHT22;61859;49.204;8.140;2022-11-15T01:15:00;9.60;99.90
73576;DHT22;61859;49.204;8.140;2022-11-15T01:17:26;9.50;99.90
73576;DHT22;61859;49.204;8.140;2022-11-15T01:19:51;9.70;99.90
73576;DHT22;61859;49.204;8.140;2022-11-15T01:22:17;9.70;99.90
73576;DHT22;61859;49.204;8.140;2022-11-15T01:24:43;9.70;99.90
73576;DHT22;61859;49.204;8.140;2022-11-15T01:27:08;9.70;99.90
73576;DHT22;61859;49.204;8.140;2022-11-15T01:29:34;9.60;99.90
73576;DHT22;61859;49.204;8.140;2022-11-15T01:32:00;9.60;99.90
73576;DHT22;61859;49.204;8.140;2022-11-15T01:34:25;9.60;99.90
73576;DHT22;61859;49.204;8.140;2022-11-15T01:36:51;9.60;99.90
73576;DHT22;61859;49.204;8.140;2022-11-15T01:39:16;9.60;99.90
73576;DHT22;61859;49.204;8.140;2022-11-15T01:41:42;9.60;99.90
73576;DHT22;61859;49.204;8.140;2022-11-15T01:47:28;9.60;99.90
73576;DHT22;61859;49.204;8.140;2022-11-15T01:50:03;9.60;99.90
73576;DHT22;61859;49.204;8.140;2022-11-15T01:52:31;9.60;99.90
73576;DHT22;61859;49.204;8.140;2022-11-15T01:55:19;9.60;99.90
73576;DHT22;61859;49.204;8.140;2022-11-15T01:57:47;9.60;99.90
73576;DHT22;61859;49.204;8.140;2022-11-15T02:00:15;9.60;99.90
73576;DHT22;61859;49.204;8.140;2022-11-15T02:02:41;9.60;99.90
73576;DHT22;61859;49.204;8.140;2022-11-15T03:16:11;9.10;99.90
73576;DHT22;61859;49.204;8.140;2022-11-15T03:18:45;9.10;99.90
73576;DHT22;61859;49.204;8.140;2022-11-15T03:21:14;9.20;99.90
73576;DHT22;61859;49.204;8.140;2022-11-15T03:23:41;9.20;99.90
73576;DHT22;61859;49.204;8.140;2022-11-15T03:26:09;9.20;99.90
73576;DHT22;61859;49.204;8.140;2022-11-15T03:28:59;9.30;99.90
73576;DHT22;61859;49.204;8.140;2022-11-15T03:31:28;9.30;99.90
73576;DHT22;61859;49.204;8.140;2022-11-15T03:34:26;9.40;99.90
73576;DHT22;61859;49.204;8.140;2022-11-15T03:36:53;9.30;99.90
73576;DHT22;61859;49.204;8.140;2022-11-15T03:39:19;9.40;99.90
73576;DHT22;61859;49.204;8.140;2022-11-15T03:41:56;9.30;99.90
73576;DHT22;61859;49.204;8.140;2022-11-15T03:50:16;9.40;99.90
73576;DHT22;61859;49.204;8.140;2022-11-15T03:52:46;9.30;99.90
73576;DHT22;61859;49.204;8.140;2022-11-15T03:55:15;9.50;99.90
73576;DHT22;61859;49.204;8.140;2022-11-15T03:57:42;9.50;99.90
73576;DHT22;61859;49.204;8.140;2022-11-15T04:00:08;9.30;99.90
73576;DHT22;61859;49.204;8.140;2022-11-15T04:02:34;9.40;99.90
73576;DHT22;61859;49.204;8.140;2022-11-15T04:04:59;9.30;99.90
73576;DHT22;61859;49.204;8.140;2022-11-15T04:07:25;9.40;99.90
73576;DHT22;61859;49.204;8.140;2022-11-15T04:09:51;9.40;99.90
73576;DHT22;61859;49.204;8.140;2022-11-15T04:12:32;9.40;99.90
73576;DHT22;61859;49.204;8.140;2022-11-15T04:15:04;9.40;99.90
73576;DHT22;61859;49.204;8.140;2022-11-15T04:17:44;9.50;99.90
73576;DHT22;61859;49.204;8.140;2022-11-15T04:20:18;9.50;99.90
73576;DHT22;61859;49.204;8.140;2022-11-15T04:23:05;9.50;99.90
73576;DHT22;61859;49.204;8.140;2022-11-15T04:25:52;9.50;99.90
73576;DHT22;61859;49.204;8.140;2022-11-15T04:28:18;9.60;99.90
73576;DHT22;61859;49.204;8.140;2022-11-15T04:30:44;9.60;99.90
73576;DHT22;61859;49.204;8.140;2022-11-15T04:33:10;9.50;99.90
73576;DHT22;61859;49.204;8.140;2022-11-15T04:35:35;9.60;99.90
73576;DHT22;61859;49.204;8.140;2022-11-15T04:38:02;9.60;99.90
73576;DHT22;61859;49.204;8.140;2022-11-15T04:40:28;9.60;99.90
73576;DHT22;61859;49.204;8.140;2022-11-15T04:42:55;9.60;99.90
73576;DHT22;61859;49.204;8.140;2022-11-15T04:45:20;9.60;99.90
73576;DHT22;61859;49.204;8.140;2022-11-15T04:47:46;9.60;99.90
73576;DHT22;61859;49.204;8.140;2022-11-15T04:50:13;9.50;99.90
73576;DHT22;61859;49.204;8.140;2022-11-15T04:52:41;9.50;99.90
73576;DHT22;61859;49.204;8.140;2022-11-15T04:55:08;9.60;99.90
73576;DHT22;61859;49.204;8.140;2022-11-15T04:57:33;9.60;99.90
73576;DHT22;61859;49.204;8.140;2022-11-15T04:59:59;9.50;99.90
73576;DHT22;61859;49.204;8.140;2022-11-15T05:02:25;9.60;99.90
73576;DHT22;61859;49.204;8.140;2022-11-15T05:05:10;9.60;99.90
73576;DHT22;61859;49.204;8.140;2022-11-15T05:07:36;9.50;99.90
73576;DHT22;61859;49.204;8.140;2022-11-15T05:10:01;9.50;99.90
73576;DHT22;61859;49.204;8.140;2022-11-15T05:15:05;9.40;99.90
73576;DHT22;61859;49.204;8.140;2022-11-15T05:17:31;9.50;99.90
73576;DHT22;61859;49.204;8.140;2022-11-15T05:19:57;9.50;99.90
73576;DHT22;61859;49.204;8.140;2022-11-15T05:22:22;9.50;99.90
73576;DHT22;61859;49.204;8.140;2022-11-15T05:24:48;9.50;99.90
73576;DHT22;61859;49.204;8.140;2022-11-15T05:27:13;9.50;99.90
73576;DHT22;61859;49.204;8.140;2022-11-15T05:29:39;9.50;99.90
73576;DHT22;61859;49.204;8.140;2022-11-15T05:32:06;9.60;99.90
73576;DHT22;61859;49.204;8.140;2022-11-15T05:34:32;9.60;99.90
73576;DHT22;61859;49.204;8.140;2022-11-15T05:36:58;9.50;99.90
73576;DHT22;61859;49.204;8.140;2022-11-15T05:39:24;9.60;99.90
73576;DHT22;61859;49.204;8.140;2022-11-15T05:41:59;9.60;99.90
73576;DHT22;61859;49.204;8.140;2022-11-15T05:44:26;9.60;99.90
73576;DHT22;61859;49.204;8.140;2022-11-15T05:46:53;9.60;99.90
73576;DHT22;61859;49.204;8.140;2022-11-15T05:49:27;9.50;99.90
73576;DHT22;61859;49.204;8.140;2022-11-15T05:51:53;9.50;99.90
73576;DHT22;61859;49.204;8.140;2022-11-15T05:54:20;9.50;99.90
73576;DHT22;61859;49.204;8.140;2022-11-15T05:56:47;9.50;99.90
73576;DHT22;61859;49.204;8.140;2022-11-15T05:59:13;9.50;99.90
73576;DHT22;61859;49.204;8.140;2022-11-15T06:01:39;9.30;99.90
73576;DHT22;61859;49.204;8.140;2022-11-15T06:04:05;9.30;99.90
73576;DHT22;61859;49.204;8.140;2022-11-15T06:06:31;9.20;99.90
73576;DHT22;61859;49.204;8.140;2022-11-15T06:08:56;9.10;99.90
73576;DHT22;61859;49.204;8.140;2022-11-15T06:11:22;9.10;99.90
73576;DHT22;61859;49.204;8.140;2022-11-15T06:13:48;9.00;99.90
73576;DHT22;61859;49.204;8.140;2022-11-15T06:16:13;9.00;99.90
73576;DHT22;61859;49.204;8.140;2022-11-15T06:18:39;9.00;99.90
73576;DHT22;61859;49.204;8.140;2022-11-15T06:21:05;8.90;99.90
73576;DHT22;61859;49.204;8.140;2022-11-15T06:23:34;8.90;99.90
73576;DHT22;61859;49.204;8.140;2022-11-15T06:26:01;8.90;99.90
73576;DHT22;61859;49.204;8.140;2022-11-15T06:28:33;8.80;99.90
73576;DHT22;61859;49.204;8.140;2022-11-15T06:31:07;8.70;99.90
73576;DHT22;61859;49.204;8.140;2022-11-15T06:33:33;8.60;99.90
73576;DHT22;61859;49.204;8.140;2022-11-15T06:36:07;8.60;99.90
73576;DHT22;61859;49.204;8.140;2022-11-15T06:38:33;8.60;99.90
73576;DHT22;61859;49.204;8.140;2022-11-15T06:41:03;8.50;99.90
73576;DHT22;61859;49.204;8.140;2022-11-15T06:43:28;8.50;99.90
73576;DHT22;61859;49.204;8.140;2022-11-15T06:45:54;8.50;99.90
73576;DHT22;61859;49.204;8.140;2022-11-15T06:48:20;8.40;99.90
73576;DHT22;61859;49.204;8.140;2022-11-15T06:50:52;8.40;99.90
73576;DHT22;61859;49.204;8.140;2022-11-15T06:53:18;8.50;99.90
73576;DHT22;61859;49.204;8.140;2022-11-15T06:55:43;8.50;99.90
73576;DHT22;61859;49.204;8.140;2022-11-15T06:58:09;8.60;99.90
73576;DHT22;61859;49.204;8.140;2022-11-15T07:00:35;8.70;99.90
73576;DHT22;61859;49.204;8.140;2022-11-15T07:03:01;8.70;99.90
73576;DHT22;61859;49.204;8.140;2022-11-15T07:05:27;8.80;99.90
73576;DHT22;61859;49.204;8.140;2022-11-15T07:07:54;8.90;99.90
73576;DHT22;61859;49.204;8.140;2022-11-15T07:10:21;8.90;99.90
73576;DHT22;61859;49.204;8.140;2022-11-15T07:12:49;9.00;99.90
73576;DHT22;61859;49.204;8.140;2022-11-15T07:15:16;9.00;99.90
73576;DHT22;61859;49.204;8.140;2022-11-15T07:17:42;9.10;99.90
73576;DHT22;61859;49.204;8.140;2022-11-15T07:20:08;9.20;99.90
73576;DHT22;61859;49.204;8.140;2022-11-15T07:22:33;9.20;99.90
73576;DHT22;61859;49.204;8.140;2022-11-15T07:24:59;9.30;99.90
73576;DHT22;61859;49.204;8.140;2022-11-15T07:27:24;9.30;99.90
73576;DHT22;61859;49.204;8.140;2022-11-15T07:29:50;9.30;99.90
73576;DHT22;61859;49.204;8.140;2022-11-15T07:32:15;9.40;99.90
73576;DHT22;61859;49.204;8.140;2022-11-15T07:34:41;9.40;99.90
73576;DHT22;61859;49.204;8.140;2022-11-15T07:37:07;9.50;99.90
73576;DHT22;61859;49.204;8.140;2022-11-15T07:39:32;9.50;99.90
73576;DHT22;61859;49.204;8.140;2022-11-15T07:41:59;9.50;99.90
73576;DHT22;61859;49.204;8.140;2022-11-15T07:44:43;9.70;99.90
73576;DHT22;61859;49.204;8.140;2022-11-15T07:47:08;9.60;99.90
73576;DHT22;61859;49.204;8.140;2022-11-15T07:49:34;9.60;99.90
73576;DHT22;61859;49.204;8.140;2022-11-15T07:51:59;9.70;99.90
73576;DHT22;61859;49.204;8.140;2022-11-15T07:54:25;9.70;99.90
73576;DHT22;61859;49.204;8.140;2022-11-15T07:56:50;9.70;99.90
73576;DHT22;61859;49.204;8.140;2022-11-15T07:59:16;9.80;99.90
73576;DHT22;61859;49.204;8.140;2022-11-15T08:01:42;9.80;99.90
73576;DHT22;61859;49.204;8.140;2022-11-15T08:04:07;9.80;99.90
73576;DHT22;61859;49.204;8.140;2022-11-15T08:06:33;9.80;99.90
73576;DHT22;61859;49.204;8.140;2022-11-15T08:08:58;10.00;99.90
73576;DHT22;61859;49.204;8.140;2022-11-15T08:11:24;10.00;99.90
73576;DHT22;61859;49.204;8.140;2022-11-15T08:13:49;9.90;99.90
73576;DHT22;61859;49.204;8.140;2022-11-15T08:16:15;10.00;99.90
73576;DHT22;61859;49.204;8.140;2022-11-15T08:18:40;10.00;99.90
73576;DHT22;61859;49.204;8.140;2022-11-15T08:21:06;10.00;99.90
73576;DHT22;61859;49.204;8.140;2022-11-15T08:23:31;10.00;99.90
73576;DHT22;61859;49.204;8.140;2022-11-15T08:26:04;10.00;99.90
73576;DHT22;61859;49.204;8.140;2022-11-15T08:28:31;10.00;99.90
73576;DHT22;61859;49.204;8.140;2022-11-15T08:30:57;10.10;99.90
73576;DHT22;61859;49.204;8.140;2022-11-15T08:33:22;10.10;99.90
73576;DHT22;61859;49.204;8.140;2022-11-15T08:35:48;10.20;99.90
73576;DHT22;61859;49.204;8.140;2022-11-15T08:38:14;10.10;99.90
73576;DHT22;61859;49.204;8.140;2022-11-15T08:40:40;10.20;99.90
73576;DHT22;61859;49.204;8.140;2022-11-15T08:43:05;10.20;99.90
73576;DHT22;61859;49.204;8.140;2022-11-15T08:45:33;10.20;99.90
73576;DHT22;61859;49.204;8.140;2022-11-15T08:48:01;10.20;99.90
73576;DHT22;61859;49.204;8.140;2022-11-15T08:50:27;10.20;99.90
73576;DHT22;61859;49.204;8.140;2022-11-15T08:52:53;10.30;99.90
73576;DHT22;61859;49.204;8.140;2022-11-15T08:55:18;10.30;99.90
73576;DHT22;61859;49.204;8.140;2022-11-15T08:57:44;10.40;99.90
73576;DHT22;61859;49.204;8.140;2022-11-15T09:00:10;10.40;99.90
73576;DHT22;61859;49.204;8.140;2022-11-15T09:02:38;10.30;99.90
73576;DHT22;61859;49.204;8.140;2022-11-15T09:05:04;10.40;99.90
73576;DHT22;61859;49.204;8.140;2022-11-15T09:07:30;10.50;99.90
73576;DHT22;61859;49.204;8.140;2022-11-15T09:09:57;10.60;99.90
73576;DHT22;61859;49.204;8.140;2022-11-15T09:12:23;10.60;99.90
73576;DHT22;61859;49.204;8.140;2022-11-15T09:14:48;10.70;99.90
73576;DHT22;61859;49.204;8.140;2022-11-15T09:17:14;10.70;99.90
73576;DHT22;61859;49.204;8.140;2022-11-15T09:19:39;10.90;99.90
73576;DHT22;61859;49.204;8.140;2022-11-15T09:22:06;10.90;99.90
73576;DHT22;61859;49.204;8.140;2022-11-15T09:24:32;11.00;99.90
73576;DHT22;61859;49.204;8.140;2022-11-15T09:26:58;11.00;99.90
73576;DHT22;61859;49.204;8.140;2022-11-15T09:29:23;11.20;99.90
73576;DHT22;61859;49.204;8.140;2022-11-15T09:31:52;11.20;99.80
73576;DHT22;61859;49.204;8.140;2022-11-15T09:34:17;11.20;99.10
73576;DHT22;61859;49.204;8.140;2022-11-15T09:36:43;11.40;99.60
73576;DHT22;61859;49.204;8.140;2022-11-15T09:39:08;11.60;99.40
73576;DHT22;61859;49.204;8.140;2022-11-15T09:44:36;11.70;99.40
73576;DHT22;61859;49.204;8.140;2022-11-15T09:49:57;11.80;98.10
73576;DHT22;61859;49.204;8.140;2022-11-15T09:52:24;11.90;97.90
73576;DHT22;61859;49.204;8.140;2022-11-15T09:54:51;12.00;98.20
73576;DHT22;61859;49.204;8.140;2022-11-15T10:00:19;12.10;97.70
73576;DHT22;61859;49.204;8.140;2022-11-15T10:03:13;12.30;97.30
73576;DHT22;61859;49.204;8.140;2022-11-15T10:05:45;12.40;96.80
73576;DHT22;61859;49.204;8.140;2022-11-15T10:10:58;12.30;96.20
73576;DHT22;61859;49.204;8.140;2022-11-15T10:13:34;12.30;96.50
73576;DHT22;61859;49.204;8.140;2022-11-15T10:16:17;12.50;96.70
73576;DHT22;61859;49.204;8.140;2022-11-15T10:22:36;12.60;96.70
73576;DHT22;61859;49.204;8.140;2022-11-15T10:24:39;12.70;96.30
73576;DHT22;61859;49.204;8.140;2022-11-15T10:27:17;12.80;95.80
73576;DHT22;61859;49.204;8.140;2022-11-15T10:29:48;12.90;94.70
73576;DHT22;61859;49.204;8.140;2022-11-15T10:32:16;13.00;94.80
73576;DHT22;61859;49.204;8.140;2022-11-15T10:34:42;13.20;94.70
73576;DHT22;61859;49.204;8.140;2022-11-15T10:37:08;13.20;94.70
73576;DHT22;61859;49.204;8.140;2022-11-15T10:39:33;13.20;92.90
73576;DHT22;61859;49.204;8.140;2022-11-15T10:42:16;13.30;93.50
73576;DHT22;61859;49.204;8.140;2022-11-15T10:44:43;13.40;93.10
73576;DHT22;61859;49.204;8.140;2022-11-15T10:47:29;13.50;93.40
73576;DHT22;61859;49.204;8.140;2022-11-15T10:50:24;13.60;92.10
73576;DHT22;61859;49.204;8.140;2022-11-15T10:52:51;13.90;91.90
73576;DHT22;61859;49.204;8.140;2022-11-15T10:57:50;14.90;88.90
73576;DHT22;61859;49.204;8.140;2022-11-15T11:03:00;15.90;84.30
73576;DHT22;61859;49.204;8.140;2022-11-15T11:05:35;16.20;83.40
73576;DHT22;61859;49.204;8.140;2022-11-15T11:08:23;16.10;82.10
73576;DHT22;61859;49.204;8.140;2022-11-15T11:10:53;15.80;82.10
73576;DHT22;61859;49.204;8.140;2022-11-15T11:13:36;15.80;83.20
73576;DHT22;61859;49.204;8.140;2022-11-15T11:18:51;15.70;83.80
73576;DHT22;61859;49.204;8.140;2022-11-15T11:21:25;15.50;84.50
73576;DHT22;61859;49.204;8.140;2022-11-15T11:23:54;15.60;83.90
73576;DHT22;61859;49.204;8.140;2022-11-15T11:26:48;15.50;84.30
73576;DHT22;61859;49.204;8.140;2022-11-15T11:35:22;15.70;83.00
73576;DHT22;61859;49.204;8.140;2022-11-15T11:40:44;15.50;84.30
73576;DHT22;61859;49.204;8.140;2022-11-15T11:48:30;15.50;83.60
73576;DHT22;61859;49.204;8.140;2022-11-15T11:51:08;15.30;84.60
73576;DHT22;61859;49.204;8.140;2022-11-15T11:53:46;15.20;85.10
73576;DHT22;61859;49.204;8.140;2022-11-15T11:58:50;15.20;85.20
73576;DHT22;61859;49.204;8.140;2022-11-15T12:01:45;15.30;85.40
73576;DHT22;61859;49.204;8.140;2022-11-15T12:04:15;15.30;85.80
73576;DHT22;61859;49.204;8.140;2022-11-15T12:06:56;15.40;85.00
73576;DHT22;61859;49.204;8.140;2022-11-15T12:15:09;15.20;84.90
73576;DHT22;61859;49.204;8.140;2022-11-15T12:17:38;15.10;85.70
73576;DHT22;61859;49.204;8.140;2022-11-15T12:22:47;15.10;87.40
73576;DHT22;61859;49.204;8.140;2022-11-15T12:30:50;15.50;85.00
73576;DHT22;61859;49.204;8.140;2022-11-15T12:33:38;15.70;84.20
73576;DHT22;61859;49.204;8.140;2022-11-15T12:36:10;15.70;84.40
73576;DHT22;61859;49.204;8.140;2022-11-15T12:41:33;15.70;84.20
73576;DHT22;61859;49.204;8.140;2022-11-15T12:44:00;15.90;84.00
73576;DHT22;61859;49.204;8.140;2022-11-15T12:49:03;16.80;81.90
73576;DHT22;61859;49.204;8.140;2022-11-15T12:59:52;17.10;79.10
73576;DHT22;61859;49.204;8.140;2022-11-15T13:02:35;17.00;79.40
73576;DHT22;61859;49.204;8.140;2022-11-15T13:17:53;16.20;81.40
73576;DHT22;61859;49.204;8.140;2022-11-15T13:20:30;16.00;82.20
73576;DHT22;61859;49.204;8.140;2022-11-15T13:23:09;15.60;82.70
73576;DHT22;61859;49.204;8.140;2022-11-15T13:30:55;15.10;85.00
73576;DHT22;61859;49.204;8.140;2022-11-15T13:33:30;15.20;85.40
73576;DHT22;61859;49.204;8.140;2022-11-15T13:35:59;15.00;85.80
73576;DHT22;61859;49.204;8.140;2022-11-15T13:38:32;15.10;85.80
73576;DHT22;61859;49.204;8.140;2022-11-15T13:40:59;15.10;86.00
73576;DHT22;61859;49.204;8.140;2022-11-15T13:46:10;15.20;86.00
73576;DHT22;61859;49.204;8.140;2022-11-15T13:48:36;15.10;85.40
73576;DHT22;61859;49.204;8.140;2022-11-15T13:51:14;15.20;85.50
73576;DHT22;61859;49.204;8.140;2022-11-15T13:53:45;15.20;85.70
73576;DHT22;61859;49.204;8.140;2022-11-15T13:56:13;15.10;85.70
73576;DHT22;61859;49.204;8.140;2022-11-15T13:58:39;15.10;85.90
73576;DHT22;61859;49.204;8.140;2022-11-15T14:01:06;15.00;86.20
73576;DHT22;61859;49.204;8.140;2022-11-15T14:03:40;15.00;86.70
73576;DHT22;61859;49.204;8.140;2022-11-15T14:06:10;15.00;87.00
73576;DHT22;61859;49.204;8.140;2022-11-15T14:11:27;15.20;87.60
73576;DHT22;61859;49.204;8.140;2022-11-15T14:16:39;15.20;87.10
73576;DHT22;61859;49.204;8.140;2022-11-15T14:19:06;15.10;87.40
73576;DHT22;61859;49.204;8.140;2022-11-15T14:21:32;15.10;87.40
73576;DHT22;61859;49.204;8.140;2022-11-15T14:24:21;15.00;87.70
73576;DHT22;61859;49.204;8.140;2022-11-15T14:26:47;14.90;88.10
73576;DHT22;61859;49.204;8.140;2022-11-15T14:29:29;14.80;88.30
73576;DHT22;61859;49.204;8.140;2022-11-15T14:32:12;14.80;88.70
73576;DHT22;61859;49.204;8.140;2022-11-15T14:34:38;14.70;88.90
73576;DHT22;61859;49.204;8.140;2022-11-15T14:37:03;14.70;88.90
73576;DHT22;61859;49.204;8.140;2022-11-15T14:39:29;14.70;89.00
73576;DHT22;61859;49.204;8.140;2022-11-15T14:41:55;14.60;89.40
73576;DHT22;61859;49.204;8.140;2022-11-15T14:44:20;14.60;89.80
73576;DHT22;61859;49.204;8.140;2022-11-15T14:46:47;14.40;89.80
73576;DHT22;61859;49.204;8.140;2022-11-15T14:49:13;14.30;90.00
73576;DHT22;61859;49.204;8.140;2022-11-15T14:51:40;14.30;90.10
73576;DHT22;61859;49.204;8.140;2022-11-15T14:54:09;14.10;90.40
73576;DHT22;61859;49.204;8.140;2022-11-15T14:56:35;14.00;90.80
73576;DHT22;61859;49.204;8.140;2022-11-15T14:59:01;13.90;91.00
73576;DHT22;61859;49.204;8.140;2022-11-15T15:01:27;13.80;91.40
73576;DHT22;61859;49.204;8.140;2022-11-15T15:03:53;13.70;91.60
73576;DHT22;61859;49.204;8.140;2022-11-15T15:06:24;13.60;92.10
73576;DHT22;61859;49.204;8.140;2022-11-15T15:08:49;13.60;92.30
73576;DHT22;61859;49.204;8.140;2022-11-15T15:11:30;13.50;92.50
73576;DHT22;61859;49.204;8.140;2022-11-15T15:13:57;13.40;92.80
73576;DHT22;61859;49.204;8.140;2022-11-15T15:16:25;13.40;93.20
73576;DHT22;61859;49.204;8.140;2022-11-15T15:18:51;13.30;93.40
73576;DHT22;61859;49.204;8.140;2022-11-15T15:21:21;13.40;93.70
73576;DHT22;61859;49.204;8.140;2022-11-15T15:23:48;13.20;93.80
73576;DHT22;61859;49.204;8.140;2022-11-15T15:26:13;13.20;94.10
73576;DHT22;61859;49.204;8.140;2022-11-15T15:28:39;13.10;94.30
73576;DHT22;61859;49.204;8.140;2022-11-15T15:31:05;13.10;94.40
73576;DHT22;61859;49.204;8.140;2022-11-15T15:33:31;13.00;94.50
73576;DHT22;61859;49.204;8.140;2022-11-15T15:35:57;12.90;94.90
73576;DHT22;61859;49.204;8.140;2022-11-15T15:38:22;12.80;95.20
73576;DHT22;61859;49.204;8.140;2022-11-15T15:40:48;12.70;95.50
73576;DHT22;61859;49.204;8.140;2022-11-15T15:43:14;12.70;95.90
73576;DHT22;61859;49.204;8.140;2022-11-15T15:45:41;12.70;96.80
73576;DHT22;61859;49.204;8.140;2022-11-15T15:48:14;12.60;96.80
73576;DHT22;61859;49.204;8.140;2022-11-15T15:50:41;12.50;96.90
73576;DHT22;61859;49.204;8.140;2022-11-15T15:53:09;12.40;96.80
73576;DHT22;61859;49.204;8.140;2022-11-15T15:55:36;12.50;97.20
73576;DHT22;61859;49.204;8.140;2022-11-15T15:58:02;12.30;97.60
73576;DHT22;61859;49.204;8.140;2022-11-15T16:00:28;12.20;97.90
73576;DHT22;61859;49.204;8.140;2022-11-15T16:02:53;12.20;98.00
73576;DHT22;61859;49.204;8.140;2022-11-15T16:05:19;12.20;98.20
73576;DHT22;61859;49.204;8.140;2022-11-15T16:07:46;12.10;98.20
73576;DHT22;61859;49.204;8.140;2022-11-15T16:10:23;12.10;98.50
73576;DHT22;61859;49.204;8.140;2022-11-15T16:12:50;12.00;98.60
73576;DHT22;61859;49.204;8.140;2022-11-15T16:15:16;12.10;98.80
73576;DHT22;61859;49.204;8.140;2022-11-15T16:17:58;12.10;98.90
73576;DHT22;61859;49.204;8.140;2022-11-15T16:20:44;12.00;99.00
73576;DHT22;61859;49.204;8.140;2022-11-15T16:23:12;12.00;99.10
73576;DHT22;61859;49.204;8.140;2022-11-15T16:25:48;11.80;99.10
73576;DHT22;61859;49.204;8.140;2022-11-15T16:28:28;11.80;99.20
73576;DHT22;61859;49.204;8.140;2022-11-15T16:31:10;11.70;99.50
73576;DHT22;61859;49.204;8.140;2022-11-15T16:33:36;11.80;99.40
73576;DHT22;61859;49.204;8.140;2022-11-15T16:36:03;11.70;99.50
73576;DHT22;61859;49.204;8.140;2022-11-15T16:38:29;11.60;99.40
73576;DHT22;61859;49.204;8.140;2022-11-15T16:40:55;11.40;99.70
73576;DHT22;61859;49.204;8.140;2022-11-15T16:43:21;11.50;99.90
73576;DHT22;61859;49.204;8.140;2022-11-15T16:45:46;11.40;99.90
73576;DHT22;61859;49.204;8.140;2022-11-15T16:48:39;11.30;99.90
73576;DHT22;61859;49.204;8.140;2022-11-15T16:51:05;11.20;99.90
73576;DHT22;61859;49.204;8.140;2022-11-15T16:53:31;11.30;99.90
73576;DHT22;61859;49.204;8.140;2022-11-15T16:55:57;11.20;99.90
73576;DHT22;61859;49.204;8.140;2022-11-15T16:58:23;11.20;99.90
73576;DHT22;61859;49.204;8.140;2022-11-15T17:00:53;11.10;99.90
73576;DHT22;61859;49.204;8.140;2022-11-15T17:03:19;11.00;99.90
73576;DHT22;61859;49.204;8.140;2022-11-15T17:05:45;11.10;99.90
73576;DHT22;61859;49.204;8.140;2022-11-15T17:08:11;11.00;99.90
73576;DHT22;61859;49.204;8.140;2022-11-15T17:10:39;11.00;99.90
73576;DHT22;61859;49.204;8.140;2022-11-15T17:13:06;11.00;99.90
73576;DHT22;61859;49.204;8.140;2022-11-15T17:15:32;11.00;99.90
73576;DHT22;61859;49.204;8.140;2022-11-15T17:17:58;11.00;99.90
73576;DHT22;61859;49.204;8.140;2022-11-15T17:20:24;11.00;99.90
73576;DHT22;61859;49.204;8.140;2022-11-15T17:22:50;11.00;99.90
73576;DHT22;61859;49.204;8.140;2022-11-15T17:25:17;11.00;99.90
73576;DHT22;61859;49.204;8.140;2022-11-15T17:27:42;11.10;99.90
73576;DHT22;61859;49.204;8.140;2022-11-15T17:30:11;11.10;99.90
73576;DHT22;61859;49.204;8.140;2022-11-15T17:32:37;11.10;99.90
73576;DHT22;61859;49.204;8.140;2022-11-15T17:35:03;11.10;99.90
73576;DHT22;61859;49.204;8.140;2022-11-15T17:37:31;11.00;99.90
73576;DHT22;61859;49.204;8.140;2022-11-15T17:39:57;11.10;99.90
73576;DHT22;61859;49.204;8.140;2022-11-15T17:42:22;11.10;99.90
73576;DHT22;61859;49.204;8.140;2022-11-15T17:44:48;11.10;99.90
73576;DHT22;61859;49.204;8.140;2022-11-15T17:47:13;11.10;99.90
73576;DHT22;61859;49.204;8.140;2022-11-15T17:49:39;11.10;99.90
73576;DHT22;61859;49.204;8.140;2022-11-15T17:52:05;11.00;99.90
73576;DHT22;61859;49.204;8.140;2022-11-15T17:54:31;11.00;99.90
73576;DHT22;61859;49.204;8.140;2022-11-15T17:56:56;11.00;99.90
73576;DHT22;61859;49.204;8.140;2022-11-15T17:59:22;11.00;99.90
73576;DHT22;61859;49.204;8.140;2022-11-15T18:01:47;11.00;99.90
73576;DHT22;61859;49.204;8.140;2022-11-15T18:04:13;11.00;99.90
73576;DHT22;61859;49.204;8.140;2022-11-15T18:06:39;10.90;99.90
73576;DHT22;61859;49.204;8.140;2022-11-15T18:09:05;11.00;99.90
73576;DHT22;61859;49.204;8.140;2022-11-15T18:11:41;10.80;99.90
73576;DHT22;61859;49.204;8.140;2022-11-15T18:14:12;10.90;99.90
73576;DHT22;61859;49.204;8.140;2022-11-15T18:16:38;10.80;99.90
73576;DHT22;61859;49.204;8.140;2022-11-15T18:19:05;11.00;99.90
73576;DHT22;61859;49.204;8.140;2022-11-15T18:21:35;10.90;99.90
73576;DHT22;61859;49.204;8.140;2022-11-15T18:24:24;10.90;99.90
73576;DHT22;61859;49.204;8.140;2022-11-15T18:26:50;10.90;99.90
73576;DHT22;61859;49.204;8.140;2022-11-15T18:29:16;11.00;99.90
73576;DHT22;61859;49.204;8.140;2022-11-15T18:31:41;11.00;99.90
73576;DHT22;61859;49.204;8.140;2022-11-15T18:34:07;11.00;99.90
73576;DHT22;61859;49.204;8.140;2022-11-15T18:36:33;11.00;99.90
73576;DHT22;61859;49.204;8.140;2022-11-15T18:39:02;11.00;99.90
73576;DHT22;61859;49.204;8.140;2022-11-15T18:41:28;11.00;99.90
73576;DHT22;61859;49.204;8.140;2022-11-15T18:43:56;11.00;99.90